sensor_id;sensor_type;location;lat;lon;timestamp;pressure;altitude;pressure_sealevel;temperature;humidity
54854;BME280;40747;49.480;8.658;2022-07-29T00:01:48;100008.53;;;23.46;54.14
54854;BME280;40747;49.480;8.658;2022-07-29T00:04:13;100059.38;;;23.79;54.32
54854;BME280;40747;49.480;8.658;2022-07-29T00:06:39;100033.72;;;23.55;55.36
54854;BME280;40747;49.480;8.658;2022-07-29T00:09:04;100052.25;;;23.48;54.91
54854;BME280;40747;49.480;8.658;2022-07-29T00:11:29;100054.78;;;23.50;55.47
54854;BME280;40747;49.480;8.658;2022-07-29T00:13:55;100017.00;;;23.11;56.39
54854;BME280;40747;49.480;8.658;2022-07-29T00:16:20;100057.00;;;23.35;56.55
54854;BME280;40747;49.480;8.658;2022-07-29T00:18:46;100060.22;;;23.29;56.82
54854;BME280;40747;49.480;8.658;2022-07-29T00:21:11;100017.72;;;23.13;57.35
54854;BME280;40747;49.480;8.658;2022-07-29T00:23:36;100044.69;;;23.32;57.20
54854;BME280;40747;49.480;8.658;2022-07-29T00:26:02;100034.81;;;23.33;57.71
54854;BME280;40747;49.480;8.658;2022-07-29T00:28:27;100040.44;;;23.20;59.19
54854;BME280;40747;49.480;8.658;2022-07-29T00:30:53;100035.59;;;23.23;59.84
54854;BME280;40747;49.480;8.658;2022-07-29T00:33:18;100035.94;;;22.99;60.92
54854;BME280;40747;49.480;8.658;2022-07-29T00:35:43;100036.38;;;23.04;61.39
54854;BME280;40747;49.480;8.658;2022-07-29T00:38:15;100036.53;;;23.13;60.81
54854;BME280;40747;49.480;8.658;2022-07-29T00:40:42;100034.69;;;23.13;60.32
54854;BME280;40747;49.480;8.658;2022-07-29T00:43:08;100026.47;;;23.05;60.93
54854;BME280;40747;49.480;8.658;2022-07-29T00:45:33;100019.09;;;22.97;61.05
54854;BME280;40747;49.480;8.658;2022-07-29T00:47:58;100015.31;;;22.79;61.68
54854;BME280;40747;49.480;8.658;2022-07-29T00:50:24;100014.94;;;22.62;62.77
54854;BME280;40747;49.480;8.658;2022-07-29T00:52:50;100005.78;;;22.65;63.45
54854;BME280;40747;49.480;8.658;2022-07-29T00:55:17;99989.63;;;22.55;63.40
54854;BME280;40747;49.480;8.658;2022-07-29T00:57:43;100020.06;;;22.65;62.99
54854;BME280;40747;49.480;8.658;2022-07-29T01:00:12;100030.34;;;22.60;63.51
54854;BME280;40747;49.480;8.658;2022-07-29T01:02:39;100028.56;;;22.70;62.83
54854;BME280;40747;49.480;8.658;2022-07-29T01:05:05;100029.69;;;22.68;64.33
54854;BME280;40747;49.480;8.658;2022-07-29T01:07:33;100029.22;;;22.63;63.63
54854;BME280;40747;49.480;8.658;2022-07-29T01:10:01;100024.00;;;22.61;63.07
54854;BME280;40747;49.480;8.658;2022-07-29T01:12:29;99996.50;;;22.48;62.88
54854;BME280;40747;49.480;8.658;2022-07-29T01:14:58;100020.06;;;22.65;62.58
54854;BME280;40747;49.480;8.658;2022-07-29T01:17:33;99980.81;;;22.43;63.06
54854;BME280;40747;49.480;8.658;2022-07-29T01:20:13;100019.19;;;22.65;62.80
54854;BME280;40747;49.480;8.658;2022-07-29T01:31:58;100020.97;;;22.33;64.42
54854;BME280;40747;49.480;8.658;2022-07-29T01:34:29;100012.78;;;22.35;64.30
54854;BME280;40747;49.480;8.658;2022-07-29T01:37:02;100012.50;;;22.17;64.83
54854;BME280;40747;49.480;8.658;2022-07-29T01:39:32;99989.19;;;22.17;65.26
54854;BME280;40747;49.480;8.658;2022-07-29T01:45:12;99998.31;;;22.26;65.63
54854;BME280;40747;49.480;8.658;2022-07-29T01:47:56;99988.44;;;22.26;65.91
54854;BME280;40747;49.480;8.658;2022-07-29T01:50:28;99984.75;;;22.27;65.78
54854;BME280;40747;49.480;8.658;2022-07-29T01:53:05;99966.00;;;22.06;65.56
54854;BME280;40747;49.480;8.658;2022-07-29T01:55:34;99990.63;;;22.00;66.41
54854;BME280;40747;49.480;8.658;2022-07-29T01:58:03;99990.19;;;21.95;66.78
54854;BME280;40747;49.480;8.658;2022-07-29T02:00:31;99995.84;;;21.81;67.08
54854;BME280;40747;49.480;8.658;2022-07-29T02:02:59;99987.56;;;21.72;67.34
54854;BME280;40747;49.480;8.658;2022-07-29T02:05:28;99991.00;;;21.74;67.46
54854;BME280;40747;49.480;8.658;2022-07-29T02:07:55;99984.69;;;21.53;68.05
54854;BME280;40747;49.480;8.658;2022-07-29T02:10:26;99977.03;;;21.59;67.94
54854;BME280;40747;49.480;8.658;2022-07-29T02:12:54;99949.69;;;21.33;68.29
54854;BME280;40747;49.480;8.658;2022-07-29T02:15:23;99938.56;;;21.38;68.25
54854;BME280;40747;49.480;8.658;2022-07-29T02:17:56;99984.59;;;21.43;69.07
54854;BME280;40747;49.480;8.658;2022-07-29T02:20:25;99979.00;;;21.46;68.96
54854;BME280;40747;49.480;8.658;2022-07-29T02:22:52;99980.09;;;21.43;69.12
54854;BME280;40747;49.480;8.658;2022-07-29T02:25:21;99978.38;;;21.42;69.42
54854;BME280;40747;49.480;8.658;2022-07-29T02:27:48;99981.06;;;21.42;69.42
54854;BME280;40747;49.480;8.658;2022-07-29T02:30:15;99968.16;;;21.48;70.21
54854;BME280;40747;49.480;8.658;2022-07-29T02:32:42;99976.19;;;21.48;69.97
54854;BME280;40747;49.480;8.658;2022-07-29T02:35:09;99951.72;;;21.41;69.69
54854;BME280;40747;49.480;8.658;2022-07-29T02:37:36;99991.41;;;21.58;69.94
54854;BME280;40747;49.480;8.658;2022-07-29T02:40:02;99992.50;;;21.56;69.96
54854;BME280;40747;49.480;8.658;2022-07-29T02:42:30;99993.50;;;21.55;70.19
54854;BME280;40747;49.480;8.658;2022-07-29T02:44:57;100002.25;;;21.57;68.56
54854;BME280;40747;49.480;8.658;2022-07-29T02:47:40;100005.28;;;21.52;67.27
54854;BME280;40747;49.480;8.658;2022-07-29T02:50:15;100002.41;;;21.10;67.96
54854;BME280;40747;49.480;8.658;2022-07-29T02:53:24;100001.34;;;21.13;67.74
54854;BME280;40747;49.480;8.658;2022-07-29T02:55:37;100003.28;;;20.99;68.80
54854;BME280;40747;49.480;8.658;2022-07-29T02:58:12;99997.56;;;21.15;69.88
54854;BME280;40747;49.480;8.658;2022-07-29T03:00:40;100010.34;;;21.23;70.08
54854;BME280;40747;49.480;8.658;2022-07-29T03:03:09;100003.50;;;21.19;69.61
54854;BME280;40747;49.480;8.658;2022-07-29T03:05:36;99964.91;;;21.10;70.07
54854;BME280;40747;49.480;8.658;2022-07-29T03:08:04;100006.50;;;21.37;70.32
54854;BME280;40747;49.480;8.658;2022-07-29T03:10:31;100000.06;;;21.39;70.38
54854;BME280;40747;49.480;8.658;2022-07-29T03:12:57;99964.31;;;21.18;70.88
54854;BME280;40747;49.480;8.658;2022-07-29T03:15:24;99994.59;;;21.41;71.10
54854;BME280;40747;49.480;8.658;2022-07-29T03:17:50;99992.75;;;21.41;70.52
54854;BME280;40747;49.480;8.658;2022-07-29T03:20:16;99963.72;;;21.14;70.92
54854;BME280;40747;49.480;8.658;2022-07-29T03:22:43;100005.31;;;21.30;71.99
54854;BME280;40747;49.480;8.658;2022-07-29T03:25:13;99997.16;;;21.31;72.45
54854;BME280;40747;49.480;8.658;2022-07-29T03:27:38;100002.38;;;21.33;72.47
54854;BME280;40747;49.480;8.658;2022-07-29T03:30:05;100008.97;;;21.28;72.95
54854;BME280;40747;49.480;8.658;2022-07-29T03:32:31;99998.75;;;21.22;72.84
54854;BME280;40747;49.480;8.658;2022-07-29T03:34:56;100002.78;;;21.17;73.37
54854;BME280;40747;49.480;8.658;2022-07-29T03:37:22;99966.06;;;20.96;73.37
54854;BME280;40747;49.480;8.658;2022-07-29T03:39:47;99997.31;;;21.07;73.60
54854;BME280;40747;49.480;8.658;2022-07-29T03:42:16;100002.66;;;21.07;73.66
54854;BME280;40747;49.480;8.658;2022-07-29T03:44:44;100001.56;;;20.98;74.14
54854;BME280;40747;49.480;8.658;2022-07-29T03:47:12;100005.22;;;20.97;74.33
54854;BME280;40747;49.480;8.658;2022-07-29T03:49:40;99971.41;;;20.73;74.53
54854;BME280;40747;49.480;8.658;2022-07-29T03:52:06;99995.09;;;20.78;74.80
54854;BME280;40747;49.480;8.658;2022-07-29T03:54:31;99996.09;;;20.77;75.14
54854;BME280;40747;49.480;8.658;2022-07-29T03:56:59;99996.06;;;20.66;75.06
54854;BME280;40747;49.480;8.658;2022-07-29T03:59:26;99998.38;;;20.59;75.13
54854;BME280;40747;49.480;8.658;2022-07-29T04:01:52;99993.03;;;20.70;74.64
54854;BME280;40747;49.480;8.658;2022-07-29T04:04:18;99994.69;;;20.60;75.04
54854;BME280;40747;49.480;8.658;2022-07-29T04:06:46;99991.06;;;20.61;74.95
54854;BME280;40747;49.480;8.658;2022-07-29T04:09:11;99988.28;;;20.51;74.81
54854;BME280;40747;49.480;8.658;2022-07-29T04:11:41;99995.28;;;20.52;74.59
54854;BME280;40747;49.480;8.658;2022-07-29T04:14:06;100003.44;;;20.51;74.61
54854;BME280;40747;49.480;8.658;2022-07-29T04:16:31;99979.34;;;20.39;74.27
54854;BME280;40747;49.480;8.658;2022-07-29T04:18:57;100010.16;;;20.68;74.19
54854;BME280;40747;49.480;8.658;2022-07-29T04:21:23;100008.47;;;20.67;74.23
54854;BME280;40747;49.480;8.658;2022-07-29T04:23:48;100015.63;;;20.55;74.92
54854;BME280;40747;49.480;8.658;2022-07-29T04:26:17;100011.91;;;20.33;74.74
54854;BME280;40747;49.480;8.658;2022-07-29T04:28:43;100006.34;;;20.36;74.57
54854;BME280;40747;49.480;8.658;2022-07-29T04:31:09;100011.94;;;20.44;74.61
54854;BME280;40747;49.480;8.658;2022-07-29T04:33:34;100011.53;;;20.26;75.45
54854;BME280;40747;49.480;8.658;2022-07-29T04:36:00;100020.53;;;20.25;75.38
54854;BME280;40747;49.480;8.658;2022-07-29T04:38:25;100020.31;;;20.28;75.30
54854;BME280;40747;49.480;8.658;2022-07-29T04:40:50;99980.72;;;19.98;75.82
54854;BME280;40747;49.480;8.658;2022-07-29T04:43:16;100021.34;;;20.14;76.03
54854;BME280;40747;49.480;8.658;2022-07-29T04:45:41;100028.66;;;20.24;76.22
54854;BME280;40747;49.480;8.658;2022-07-29T04:48:07;100022.03;;;20.29;75.70
54854;BME280;40747;49.480;8.658;2022-07-29T04:50:32;99998.28;;;20.25;75.34
54854;BME280;40747;49.480;8.658;2022-07-29T04:52:57;100028.75;;;20.46;75.08
54854;BME280;40747;49.480;8.658;2022-07-29T04:55:23;100031.16;;;20.50;74.90
54854;BME280;40747;49.480;8.658;2022-07-29T04:57:48;100024.94;;;20.38;75.26
54854;BME280;40747;49.480;8.658;2022-07-29T05:00:13;99998.66;;;20.32;74.96
54854;BME280;40747;49.480;8.658;2022-07-29T05:02:39;100025.09;;;20.48;74.78
54854;BME280;40747;49.480;8.658;2022-07-29T05:05:05;100010.94;;;20.34;75.27
54854;BME280;40747;49.480;8.658;2022-07-29T05:07:30;100022.28;;;20.38;75.08
54854;BME280;40747;49.480;8.658;2022-07-29T05:09:55;100033.00;;;20.49;75.07
54854;BME280;40747;49.480;8.658;2022-07-29T05:12:22;99982.13;;;20.26;75.17
54854;BME280;40747;49.480;8.658;2022-07-29T05:14:48;100027.31;;;20.54;75.22
54854;BME280;40747;49.480;8.658;2022-07-29T05:17:13;100029.25;;;20.63;74.86
54854;BME280;40747;49.480;8.658;2022-07-29T05:19:38;100029.25;;;20.63;74.71
54854;BME280;40747;49.480;8.658;2022-07-29T05:22:04;100002.84;;;20.47;75.28
54854;BME280;40747;49.480;8.658;2022-07-29T05:24:29;100038.88;;;20.66;75.35
54854;BME280;40747;49.480;8.658;2022-07-29T05:26:54;99999.66;;;20.42;75.24
54854;BME280;40747;49.480;8.658;2022-07-29T05:29:19;100032.22;;;20.71;75.29
54854;BME280;40747;49.480;8.658;2022-07-29T05:31:45;100034.91;;;20.83;75.24
54854;BME280;40747;49.480;8.658;2022-07-29T05:34:10;100028.81;;;20.92;75.69
54854;BME280;40747;49.480;8.658;2022-07-29T05:36:36;100031.75;;;20.89;75.28
54854;BME280;40747;49.480;8.658;2022-07-29T05:39:01;100036.03;;;21.03;75.16
54854;BME280;40747;49.480;8.658;2022-07-29T05:41:26;100028.81;;;21.15;74.85
54854;BME280;40747;49.480;8.658;2022-07-29T05:43:51;100034.66;;;21.20;74.41
54854;BME280;40747;49.480;8.658;2022-07-29T05:46:17;100041.25;;;21.38;74.32
54854;BME280;40747;49.480;8.658;2022-07-29T05:48:42;100041.09;;;21.51;73.99
54854;BME280;40747;49.480;8.658;2022-07-29T05:51:08;100010.28;;;21.45;73.72
54854;BME280;40747;49.480;8.658;2022-07-29T05:53:33;100044.13;;;21.69;73.34
54854;BME280;40747;49.480;8.658;2022-07-29T05:56:03;100044.09;;;21.81;73.77
54854;BME280;40747;49.480;8.658;2022-07-29T05:58:28;100039.09;;;21.87;74.24
54854;BME280;40747;49.480;8.658;2022-07-29T06:00:53;100045.53;;;21.85;73.92
54854;BME280;40747;49.480;8.658;2022-07-29T06:03:20;100032.91;;;21.75;74.20
54854;BME280;40747;49.480;8.658;2022-07-29T06:05:46;100057.53;;;22.02;73.97
54854;BME280;40747;49.480;8.658;2022-07-29T06:08:11;100049.31;;;22.15;73.51
54854;BME280;40747;49.480;8.658;2022-07-29T06:10:37;100059.03;;;22.27;72.68
54854;BME280;40747;49.480;8.658;2022-07-29T06:13:02;100035.81;;;22.16;72.75
54854;BME280;40747;49.480;8.658;2022-07-29T06:15:28;100055.81;;;22.45;72.25
54854;BME280;40747;49.480;8.658;2022-07-29T06:17:53;100029.22;;;22.41;74.13
54854;BME280;40747;49.480;8.658;2022-07-29T06:20:18;100065.25;;;22.60;72.59
54854;BME280;40747;49.480;8.658;2022-07-29T06:22:44;100056.16;;;22.72;72.54
54854;BME280;40747;49.480;8.658;2022-07-29T06:25:09;100065.81;;;22.85;72.52
54854;BME280;40747;49.480;8.658;2022-07-29T06:27:35;100061.91;;;22.99;71.82
54854;BME280;40747;49.480;8.658;2022-07-29T06:30:00;100066.38;;;23.10;70.59
54854;BME280;40747;49.480;8.658;2022-07-29T06:32:26;100061.25;;;23.06;70.45
54854;BME280;40747;49.480;8.658;2022-07-29T06:34:52;100061.34;;;22.95;70.16
54854;BME280;40747;49.480;8.658;2022-07-29T06:37:17;100058.84;;;23.03;69.72
54854;BME280;40747;49.480;8.658;2022-07-29T06:39:42;100065.44;;;23.20;68.34
54854;BME280;40747;49.480;8.658;2022-07-29T06:42:08;100071.25;;;23.26;68.29
54854;BME280;40747;49.480;8.658;2022-07-29T06:44:33;100070.34;;;23.46;68.71
54854;BME280;40747;49.480;8.658;2022-07-29T06:46:59;100049.56;;;23.48;68.03
54854;BME280;40747;49.480;8.658;2022-07-29T06:49:25;100058.53;;;23.68;66.40
54854;BME280;40747;49.480;8.658;2022-07-29T06:51:52;100070.75;;;23.92;66.30
54854;BME280;40747;49.480;8.658;2022-07-29T06:54:17;100073.59;;;24.10;66.35
54854;BME280;40747;49.480;8.658;2022-07-29T06:56:42;100078.44;;;24.26;65.10
54854;BME280;40747;49.480;8.658;2022-07-29T06:59:09;100067.53;;;24.37;65.18
54854;BME280;40747;49.480;8.658;2022-07-29T07:01:39;100077.28;;;24.58;65.11
54854;BME280;40747;49.480;8.658;2022-07-29T07:04:05;100047.09;;;24.45;66.03
54854;BME280;40747;49.480;8.658;2022-07-29T07:06:31;100083.06;;;24.53;64.88
54854;BME280;40747;49.480;8.658;2022-07-29T07:08:56;100077.84;;;24.62;64.46
54854;BME280;40747;49.480;8.658;2022-07-29T07:11:22;100035.50;;;24.34;65.07
54854;BME280;40747;49.480;8.658;2022-07-29T07:13:47;100081.94;;;24.56;64.32
54854;BME280;40747;49.480;8.658;2022-07-29T07:16:12;100084.22;;;24.61;64.47
54854;BME280;40747;49.480;8.658;2022-07-29T07:18:38;100086.47;;;24.75;63.97
54854;BME280;40747;49.480;8.658;2022-07-29T07:21:03;100085.91;;;24.81;64.64
54854;BME280;40747;49.480;8.658;2022-07-29T07:23:30;100049.16;;;24.90;63.95
54854;BME280;40747;49.480;8.658;2022-07-29T07:25:55;100081.31;;;25.29;63.08
54854;BME280;40747;49.480;8.658;2022-07-29T07:28:21;100085.88;;;25.39;62.01
54854;BME280;40747;49.480;8.658;2022-07-29T07:30:46;100090.75;;;25.53;61.41
54854;BME280;40747;49.480;8.658;2022-07-29T07:33:12;100087.72;;;25.66;63.69
54854;BME280;40747;49.480;8.658;2022-07-29T07:35:37;100093.91;;;25.76;61.59
54854;BME280;40747;49.480;8.658;2022-07-29T07:38:03;100088.41;;;25.68;62.19
54854;BME280;40747;49.480;8.658;2022-07-29T07:40:28;100089.44;;;25.85;61.64
54854;BME280;40747;49.480;8.658;2022-07-29T07:42:53;100099.09;;;25.88;62.14
54854;BME280;40747;49.480;8.658;2022-07-29T07:45:19;100082.31;;;26.12;60.63
54854;BME280;40747;49.480;8.658;2022-07-29T07:47:44;100090.00;;;26.43;60.65
54854;BME280;40747;49.480;8.658;2022-07-29T07:50:11;100093.84;;;26.58;59.35
54854;BME280;40747;49.480;8.658;2022-07-29T07:52:50;100081.06;;;26.87;58.97
54854;BME280;40747;49.480;8.658;2022-07-29T07:55:16;100081.16;;;26.32;59.86
54854;BME280;40747;49.480;8.658;2022-07-29T07:57:41;100088.09;;;26.17;60.01
54854;BME280;40747;49.480;8.658;2022-07-29T08:00:07;100065.91;;;26.23;60.02
54854;BME280;40747;49.480;8.658;2022-07-29T08:02:32;100088.53;;;26.66;58.03
54854;BME280;40747;49.480;8.658;2022-07-29T08:04:58;100096.94;;;26.63;59.42
54854;BME280;40747;49.480;8.658;2022-07-29T08:07:24;100091.50;;;26.19;60.50
54854;BME280;40747;49.480;8.658;2022-07-29T08:09:49;100063.09;;;26.15;59.52
54854;BME280;40747;49.480;8.658;2022-07-29T08:12:15;100076.44;;;26.53;60.27
54854;BME280;40747;49.480;8.658;2022-07-29T08:14:40;100105.47;;;26.32;60.02
54854;BME280;40747;49.480;8.658;2022-07-29T08:17:05;100089.50;;;25.93;61.68
54854;BME280;40747;49.480;8.658;2022-07-29T08:19:31;100097.38;;;26.14;59.90
54854;BME280;40747;49.480;8.658;2022-07-29T08:21:56;100090.03;;;26.25;59.48
54854;BME280;40747;49.480;8.658;2022-07-29T08:24:22;100096.44;;;26.24;61.46
54854;BME280;40747;49.480;8.658;2022-07-29T08:27:06;100064.59;;;26.09;59.96
54854;BME280;40747;49.480;8.658;2022-07-29T08:29:31;100095.22;;;26.18;60.39
54854;BME280;40747;49.480;8.658;2022-07-29T08:31:57;100090.72;;;26.45;60.33
54854;BME280;40747;49.480;8.658;2022-07-29T08:34:22;100091.19;;;26.40;60.93
54854;BME280;40747;49.480;8.658;2022-07-29T08:36:47;100103.56;;;26.69;60.02
54854;BME280;40747;49.480;8.658;2022-07-29T08:39:13;100065.66;;;26.79;59.95
54854;BME280;40747;49.480;8.658;2022-07-29T08:41:38;100049.25;;;26.98;57.81
54854;BME280;40747;49.480;8.658;2022-07-29T08:44:03;100104.53;;;27.39;57.20
54854;BME280;40747;49.480;8.658;2022-07-29T08:46:29;100103.25;;;27.51;57.20
54854;BME280;40747;49.480;8.658;2022-07-29T08:48:55;100098.75;;;27.68;57.21
54854;BME280;40747;49.480;8.658;2022-07-29T08:51:21;100099.97;;;27.82;55.71
54854;BME280;40747;49.480;8.658;2022-07-29T08:53:48;100107.03;;;28.51;55.33
54854;BME280;40747;49.480;8.658;2022-07-29T08:56:18;100099.03;;;28.99;54.71
54854;BME280;40747;49.480;8.658;2022-07-29T08:58:45;100098.38;;;28.97;54.13
54854;BME280;40747;49.480;8.658;2022-07-29T09:01:10;100101.91;;;29.05;52.52
54854;BME280;40747;49.480;8.658;2022-07-29T09:03:37;100090.41;;;29.51;52.77
54854;BME280;40747;49.480;8.658;2022-07-29T09:06:04;100091.31;;;29.75;52.72
54854;BME280;40747;49.480;8.658;2022-07-29T09:08:33;100088.41;;;29.77;51.51
54854;BME280;40747;49.480;8.658;2022-07-29T09:11:00;100089.69;;;29.97;52.98
54854;BME280;40747;49.480;8.658;2022-07-29T09:13:26;100096.88;;;29.82;51.93
54854;BME280;40747;49.480;8.658;2022-07-29T09:15:51;100095.19;;;29.41;53.40
54854;BME280;40747;49.480;8.658;2022-07-29T09:18:37;100085.91;;;29.67;53.19
54854;BME280;40747;49.480;8.658;2022-07-29T09:21:03;100087.28;;;29.71;52.21
54854;BME280;40747;49.480;8.658;2022-07-29T09:24:04;100086.97;;;29.66;52.35
54854;BME280;40747;49.480;8.658;2022-07-29T09:26:32;100093.72;;;29.70;53.03
54854;BME280;40747;49.480;8.658;2022-07-29T09:28:58;100087.09;;;30.04;51.46
54854;BME280;40747;49.480;8.658;2022-07-29T09:31:35;100094.94;;;29.67;51.36
54854;BME280;40747;49.480;8.658;2022-07-29T09:34:02;100094.38;;;29.72;51.52
54854;BME280;40747;49.480;8.658;2022-07-29T09:36:27;100092.63;;;29.87;52.06
54854;BME280;40747;49.480;8.658;2022-07-29T09:39:00;100094.63;;;29.62;51.19
54854;BME280;40747;49.480;8.658;2022-07-29T09:41:27;100091.38;;;29.19;53.52
54854;BME280;40747;49.480;8.658;2022-07-29T09:43:56;100101.31;;;29.35;51.98
54854;BME280;40747;49.480;8.658;2022-07-29T09:46:23;100097.19;;;29.55;51.91
54854;BME280;40747;49.480;8.658;2022-07-29T09:49:12;100099.03;;;29.63;53.04
54854;BME280;40747;49.480;8.658;2022-07-29T09:51:38;100095.38;;;29.79;51.07
54854;BME280;40747;49.480;8.658;2022-07-29T09:54:24;100101.84;;;30.10;50.88
54854;BME280;40747;49.480;8.658;2022-07-29T09:56:51;100097.19;;;30.18;50.52
54854;BME280;40747;49.480;8.658;2022-07-29T09:59:17;100092.66;;;30.34;50.71
54854;BME280;40747;49.480;8.658;2022-07-29T10:01:42;100083.63;;;30.80;49.62
54854;BME280;40747;49.480;8.658;2022-07-29T10:04:08;100091.03;;;31.01;50.92
54854;BME280;40747;49.480;8.658;2022-07-29T10:06:34;100080.50;;;30.83;48.16
54854;BME280;40747;49.480;8.658;2022-07-29T10:09:10;100055.94;;;30.76;50.03
54854;BME280;40747;49.480;8.658;2022-07-29T10:11:36;100056.34;;;31.03;48.89
54854;BME280;40747;49.480;8.658;2022-07-29T10:14:03;100084.38;;;31.03;50.34
54854;BME280;40747;49.480;8.658;2022-07-29T10:16:29;100086.75;;;31.21;49.15
54854;BME280;40747;49.480;8.658;2022-07-29T10:18:58;100084.88;;;31.07;49.91
54854;BME280;40747;49.480;8.658;2022-07-29T10:21:27;100064.50;;;31.33;49.98
54854;BME280;40747;49.480;8.658;2022-07-29T10:23:53;100085.44;;;31.84;48.53
54854;BME280;40747;49.480;8.658;2022-07-29T10:26:19;100089.41;;;32.18;48.53
54854;BME280;40747;49.480;8.658;2022-07-29T10:28:45;100060.50;;;32.02;47.30
54854;BME280;40747;49.480;8.658;2022-07-29T10:31:17;100083.84;;;32.55;46.94
54854;BME280;40747;49.480;8.658;2022-07-29T10:34:06;100079.97;;;32.42;46.43
54854;BME280;40747;49.480;8.658;2022-07-29T10:36:54;100078.75;;;33.02;45.76
54854;BME280;40747;49.480;8.658;2022-07-29T10:39:52;100072.66;;;33.28;45.05
54854;BME280;40747;49.480;8.658;2022-07-29T10:42:22;100039.34;;;33.46;44.46
54854;BME280;40747;49.480;8.658;2022-07-29T10:44:50;100077.06;;;32.72;45.36
54854;BME280;40747;49.480;8.658;2022-07-29T10:47:24;100074.94;;;32.67;46.42
54854;BME280;40747;49.480;8.658;2022-07-29T10:50:00;100060.88;;;32.92;45.17
54854;BME280;40747;49.480;8.658;2022-07-29T10:55:34;100053.66;;;33.55;43.38
54854;BME280;40747;49.480;8.658;2022-07-29T10:58:30;100050.50;;;33.58;43.32
54854;BME280;40747;49.480;8.658;2022-07-29T11:00:55;100052.50;;;33.91;42.66
54854;BME280;40747;49.480;8.658;2022-07-29T11:06:05;100059.00;;;33.90;42.47
54854;BME280;40747;49.480;8.658;2022-07-29T11:08:31;100063.03;;;34.21;43.01
54854;BME280;40747;49.480;8.658;2022-07-29T11:16:11;100040.03;;;35.22;40.94
54854;BME280;40747;49.480;8.658;2022-07-29T11:21:42;100042.88;;;34.69;41.17
54854;BME280;40747;49.480;8.658;2022-07-29T11:24:17;100039.00;;;35.10;39.73
54854;BME280;40747;49.480;8.658;2022-07-29T11:26:43;100039.88;;;35.04;40.42
54854;BME280;40747;49.480;8.658;2022-07-29T11:31:44;100039.91;;;34.70;40.45
54854;BME280;40747;49.480;8.658;2022-07-29T11:34:28;100043.72;;;34.22;40.55
54854;BME280;40747;49.480;8.658;2022-07-29T11:39:37;100036.97;;;33.36;42.77
54854;BME280;40747;49.480;8.658;2022-07-29T11:45:00;100032.81;;;33.05;43.31
54854;BME280;40747;49.480;8.658;2022-07-29T11:47:29;100037.00;;;33.43;43.02
54854;BME280;40747;49.480;8.658;2022-07-29T11:49:58;100044.66;;;33.26;43.54
54854;BME280;40747;49.480;8.658;2022-07-29T11:52:33;100027.56;;;33.45;42.33
54854;BME280;40747;49.480;8.658;2022-07-29T11:55:01;100024.91;;;33.72;42.15
54854;BME280;40747;49.480;8.658;2022-07-29T11:57:27;100025.97;;;33.71;42.46
54854;BME280;40747;49.480;8.658;2022-07-29T11:59:53;100030.56;;;33.15;42.69
54854;BME280;40747;49.480;8.658;2022-07-29T12:02:20;100025.22;;;33.29;42.96
54854;BME280;40747;49.480;8.658;2022-07-29T12:05:03;100028.28;;;33.26;43.19
54854;BME280;40747;49.480;8.658;2022-07-29T12:07:30;100008.28;;;33.12;42.40
54854;BME280;40747;49.480;8.658;2022-07-29T12:09:55;99995.19;;;32.59;43.00
54854;BME280;40747;49.480;8.658;2022-07-29T12:12:21;100023.03;;;32.26;44.72
54854;BME280;40747;49.480;8.658;2022-07-29T12:14:48;100022.09;;;31.97;44.35
54854;BME280;40747;49.480;8.658;2022-07-29T12:19:59;100018.63;;;32.53;41.47
54854;BME280;40747;49.480;8.658;2022-07-29T12:22:27;100012.13;;;32.82;41.64
54854;BME280;40747;49.480;8.658;2022-07-29T12:24:53;100014.84;;;33.17;42.15
54854;BME280;40747;49.480;8.658;2022-07-29T12:27:19;100011.28;;;33.24;40.81
54854;BME280;40747;49.480;8.658;2022-07-29T12:29:54;100014.09;;;32.67;42.14
54854;BME280;40747;49.480;8.658;2022-07-29T12:32:20;100020.28;;;32.04;43.00
54854;BME280;40747;49.480;8.658;2022-07-29T12:34:45;100024.25;;;32.01;43.32
54854;BME280;40747;49.480;8.658;2022-07-29T12:37:11;100021.78;;;31.85;43.75
54854;BME280;40747;49.480;8.658;2022-07-29T12:39:36;99984.53;;;31.49;44.31
54854;BME280;40747;49.480;8.658;2022-07-29T12:42:11;100012.63;;;31.71;44.98
54854;BME280;40747;49.480;8.658;2022-07-29T12:44:47;100013.88;;;31.53;44.88
54854;BME280;40747;49.480;8.658;2022-07-29T12:47:12;100016.00;;;31.21;45.71
54854;BME280;40747;49.480;8.658;2022-07-29T12:49:37;100015.38;;;31.56;44.92
54854;BME280;40747;49.480;8.658;2022-07-29T12:52:27;100004.31;;;30.91;45.41
54854;BME280;40747;49.480;8.658;2022-07-29T12:54:53;100010.72;;;31.05;46.04
54854;BME280;40747;49.480;8.658;2022-07-29T12:57:18;100010.41;;;31.08;45.12
54854;BME280;40747;49.480;8.658;2022-07-29T12:59:44;100006.44;;;30.96;45.21
54854;BME280;40747;49.480;8.658;2022-07-29T13:02:21;100006.34;;;31.19;44.78
54854;BME280;40747;49.480;8.658;2022-07-29T13:04:55;99996.06;;;31.14;46.24
54854;BME280;40747;49.480;8.658;2022-07-29T13:07:28;100002.13;;;31.31;44.33
54854;BME280;40747;49.480;8.658;2022-07-29T13:09:54;99994.97;;;31.30;44.70
54854;BME280;40747;49.480;8.658;2022-07-29T13:12:22;99998.97;;;31.13;44.30
54854;BME280;40747;49.480;8.658;2022-07-29T13:14:48;100003.94;;;31.09;43.15
54854;BME280;40747;49.480;8.658;2022-07-29T13:17:16;99995.72;;;31.39;44.04
54854;BME280;40747;49.480;8.658;2022-07-29T13:19:44;99997.16;;;31.72;43.36
54854;BME280;40747;49.480;8.658;2022-07-29T13:22:12;100002.13;;;31.16;42.50
54854;BME280;40747;49.480;8.658;2022-07-29T13:27:16;99970.16;;;31.55;42.11
54854;BME280;40747;49.480;8.658;2022-07-29T13:29:42;99990.50;;;31.59;41.78
54854;BME280;40747;49.480;8.658;2022-07-29T13:32:07;100004.13;;;31.59;42.08
54854;BME280;40747;49.480;8.658;2022-07-29T13:34:33;100002.31;;;31.66;42.93
54854;BME280;40747;49.480;8.658;2022-07-29T13:36:58;99998.81;;;31.73;42.05